Arthur N Neu Airport


Codes: KCIN/CIN
Name: Arthur N Neu Airport
City: Carroll
Country: United States
Elevation: 1204 ft.
Website:
Wikipedia:

Photos at Arthur N Neu Airport


   Photos courtesy of SpottingLog. You can add your own sightings and photos by signing up for a free trial today.



No photos found.

Weather at Arthur N Neu Airport


Time (UTC)DescriptionTempratureWindCloud coverageVisibilityPressureHumidity
21-Jun-2024 12:00Light Rain22°C9 mph, S20%10000m1020hPa100%
21-Jun-2024 15:00Few Clouds23°C16 mph, S14%10000m1019hPa91%
21-Jun-2024 18:00Light Rain26°C16 mph, SW8%10000m1018hPa78%
21-Jun-2024 21:00Light Rain29°C13 mph, SW24%10000m1015hPa64%
22-Jun-2024 00:00Light Rain27°C11 mph, S13%10000m1013hPa78%
22-Jun-2024 03:00Light Rain24°C13 mph, S0%10000m1013hPa90%
22-Jun-2024 06:00Light Rain23°C16 mph, S14%10000m1012hPa88%
22-Jun-2024 09:00Light Rain22°C16 mph, SW45%10000m1011hPa91%
22-Jun-2024 12:00Moderate Rain21°C7 mph, SW73%10000m1011hPa98%
22-Jun-2024 15:00Moderate Rain23°C13 mph, SW100%10000m1010hPa89%
22-Jun-2024 18:00Light Rain27°C11 mph, W100%10000m1008hPa73%
22-Jun-2024 21:00Moderate Rain27°C7 mph, NW100%10000m1008hPa79%
23-Jun-2024 00:00Light Rain23°C7 mph, N98%10000m1009hPa90%
23-Jun-2024 03:00Light Rain21°C7 mph, N63%10000m1010hPa94%
23-Jun-2024 06:00Scattered Clouds19°C7 mph, N31%10000m1011hPa95%
23-Jun-2024 09:00Clear Sky18°C4 mph, N4%10000m1011hPa98%
23-Jun-2024 12:00Clear Sky18°C4 mph, N8%10000m1013hPa96%
23-Jun-2024 15:00Clear Sky23°C4 mph, E4%10000m1013hPa78%
23-Jun-2024 18:00Clear Sky27°C7 mph, S2%10000m1012hPa62%
23-Jun-2024 21:00Clear Sky29°C7 mph, S0%10000m1010hPa60%
24-Jun-2024 00:00Clear Sky28°C7 mph, SW0%10000m1009hPa71%
24-Jun-2024 03:00Clear Sky23°C9 mph, S0%10000m1009hPa88%
24-Jun-2024 06:00Clear Sky22°C9 mph, S0%10000m1009hPa90%
24-Jun-2024 09:00Clear Sky21°C9 mph, S0%10000m1008hPa92%
24-Jun-2024 12:00Few Clouds23°C11 mph, S12%10000m1007hPa91%
24-Jun-2024 15:00Broken Clouds28°C16 mph, SW63%10000m1006hPa74%
24-Jun-2024 18:00Scattered Clouds31°C16 mph, S33%10000m1005hPa62%
24-Jun-2024 21:00Scattered Clouds32°C16 mph, S42%10000m1003hPa67%
25-Jun-2024 00:00Scattered Clouds30°C16 mph, S46%10000m1002hPa75%
25-Jun-2024 03:00Scattered Clouds28°C18 mph, S32%10000m1002hPa75%
25-Jun-2024 06:00Few Clouds27°C20 mph, SW16%10000m1002hPa73%
25-Jun-2024 09:00Few Clouds26°C20 mph, SW13%10000m1001hPa69%
25-Jun-2024 12:00Light Rain25°C20 mph, SW56%10000m1001hPa78%
25-Jun-2024 15:00Broken Clouds27°C18 mph, SW77%10000m1001hPa74%
25-Jun-2024 18:00Light Rain26°C9 mph, SW69%10000m1003hPa79%
25-Jun-2024 21:00Broken Clouds29°C18 mph, N64%10000m1004hPa70%
26-Jun-2024 00:00Scattered Clouds25°C18 mph, NW35%10000m1006hPa68%
26-Jun-2024 03:00Clear Sky19°C7 mph, NW0%10000m1009hPa76%
26-Jun-2024 06:00Clear Sky18°C9 mph, NW0%10000m1011hPa83%
26-Jun-2024 09:00Clear Sky17°C11 mph, NW0%10000m1011hPa86%